Time;durP1;ratioP1;P1;durP2;ratioP2;P2;SDS_P1;SDS_P2;PMS_P1;PMS_P2;Temp;Humidity;BMP_temperature;BMP_pressure;BME280_temperature;BME280_humidity;BME280_pressure;Samples;Min_cycle;Max_cycle;Signal;HPM_P1;HPM_P2
2023/10/18 00:01:41;;;;;;;15.30;13.60;;;7.80;99.90;;;;;;6309597;22;20422;-40
2023/10/18 00:04:07;;;;;;;14.70;13.23;;;7.80;99.90;;;;;;6308268;22;20148;-40
2023/10/18 00:06:32;;;;;;;15.20;13.73;;;7.70;99.90;;;;;;6309595;22;20718;-39
2023/10/18 00:08:59;;;;;;;15.77;14.30;;;7.70;99.90;;;;;;6309429;22;20152;-39
2023/10/18 00:11:27;;;;;;;16.80;15.20;;;7.70;99.90;;;;;;6308785;22;20479;-40
2023/10/18 00:13:53;;;;;;;15.50;14.00;;;7.70;99.90;;;;;;6309000;22;20359;-39
2023/10/18 00:16:21;;;;;;;15.07;13.67;;;7.60;99.90;;;;;;6309178;22;20451;-40
2023/10/18 00:18:47;;;;;;;15.17;13.87;;;7.60;99.90;;;;;;6307657;22;20761;-40
2023/10/18 00:21:12;;;;;;;14.70;13.20;;;7.60;99.90;;;;;;6307995;22;20452;-44
2023/10/18 00:23:39;;;;;;;15.73;13.70;;;7.50;99.90;;;;;;6308062;22;20162;-41
2023/10/18 00:26:06;;;;;;;14.70;13.30;;;7.50;99.90;;;;;;6308290;22;20148;-38
2023/10/18 00:28:34;;;;;;;16.00;14.30;;;7.50;99.90;;;;;;6306954;22;20768;-39
2023/10/18 00:31:22;;;;;;;15.13;13.67;;;7.50;99.90;;;;;;6309245;22;20423;-41
2023/10/18 00:33:48;;;;;;;14.10;12.60;;;7.50;99.90;;;;;;6308150;22;20385;-39
2023/10/18 00:36:17;;;;;;;14.37;13.07;;;7.50;99.90;;;;;;6308728;22;20443;-40
2023/10/18 00:38:53;;;;;;;14.20;12.83;;;7.40;99.90;;;;;;6308301;22;20398;-40
2023/10/18 00:41:22;;;;;;;14.60;13.13;;;7.40;99.90;;;;;;6308826;22;20508;-41
2023/10/18 00:43:50;;;;;;;15.20;13.80;;;7.40;99.90;;;;;;6282010;22;20463;-41
2023/10/18 00:46:16;;;;;;;13.73;12.53;;;7.40;92.10;;;;;;6309315;22;20439;-39
2023/10/18 00:48:44;;;;;;;15.90;14.40;;;7.40;42.00;;;;;;6309067;22;20416;-40
2023/10/18 00:51:11;;;;;;;15.10;13.50;;;7.30;32.30;;;;;;6310711;22;20777;-39
2023/10/18 00:53:38;;;;;;;14.37;12.97;;;7.30;22.00;;;;;;6282382;22;20354;-39
2023/10/18 00:56:05;;;;;;;17.13;13.20;;;7.30;13.10;;;;;;6309751;22;20441;-39
2023/10/18 00:58:32;;;;;;;13.97;12.43;;;7.30;7.50;;;;;;6309543;22;20450;-39
2023/10/18 01:00:59;;;;;;;14.53;13.07;;;7.30;1.00;;;;;;6282687;22;20477;-40
2023/10/18 01:03:32;;;;;;;14.47;13.03;;;7.20;1.00;;;;;;6309266;22;20443;-40
2023/10/18 01:06:04;;;;;;;14.80;13.40;;;7.20;1.00;;;;;;6283686;22;20480;-39
2023/10/18 01:08:30;;;;;;;14.53;13.13;;;7.20;1.00;;;;;;6309164;22;20417;-41
2023/10/18 01:11:06;;;;;;;13.80;12.03;;;7.20;74.20;;;;;;6308116;22;20355;-39
2023/10/18 01:13:37;;;;;;;13.87;12.57;;;7.20;99.90;;;;;;6309700;22;20627;-39
2023/10/18 01:16:14;;;;;;;14.37;12.93;;;7.10;99.90;;;;;;6309439;22;20393;-38
2023/10/18 01:18:43;;;;;;;14.23;12.93;;;7.10;99.90;;;;;;6281678;22;20855;-39
2023/10/18 01:21:17;;;;;;;14.37;12.97;;;7.10;99.90;;;;;;6308459;22;20386;-39
2023/10/18 01:23:49;;;;;;;14.30;12.90;;;7.10;58.10;;;;;;6308651;22;20484;-40
2023/10/18 01:26:15;;;;;;;16.10;13.57;;;7.10;26.50;;;;;;6307639;22;20354;-40
2023/10/18 01:28:41;;;;;;;16.70;15.10;;;7.10;19.80;;;;;;6275997;22;20443;-40
2023/10/18 01:31:07;;;;;;;13.93;12.50;;;7.10;26.40;;;;;;6277046;22;20648;-42
2023/10/18 01:33:33;;;;;;;15.87;14.30;;;7.10;27.30;;;;;;6277519;22;20397;-41
2023/10/18 01:36:00;;;;;;;14.57;13.17;;;7.00;44.20;;;;;;6278613;22;20390;-39
2023/10/18 01:38:29;;;;;;;15.43;13.93;;;7.00;99.90;;;;;;6277741;22;20403;-39
2023/10/18 01:40:57;;;;;;;16.40;14.30;;;7.00;99.90;;;;;;6277310;22;20351;-38
2023/10/18 01:43:27;;;;;;;16.03;14.30;;;7.00;99.90;;;;;;6276841;22;20387;-40
2023/10/18 01:45:57;;;;;;;14.37;12.93;;;6.90;99.90;;;;;;6277629;22;20383;-39
2023/10/18 01:48:25;;;;;;;14.63;13.00;;;6.90;99.90;;;;;;6279166;22;20514;-39
2023/10/18 01:50:50;;;;;;;14.67;13.10;;;6.90;99.90;;;;;;6282781;22;20635;-40
2023/10/18 01:53:16;;;;;;;13.53;12.20;;;6.90;99.90;;;;;;6279836;22;20458;-39
2023/10/18 01:55:51;;;;;;;14.20;12.80;;;6.90;99.90;;;;;;6279961;22;20168;-38
2023/10/18 01:58:16;;;;;;;14.37;13.07;;;6.90;99.90;;;;;;6278687;22;20387;-40
2023/10/18 02:00:42;;;;;;;14.83;12.73;;;6.90;99.90;;;;;;6280159;22;20398;-39
2023/10/18 02:03:14;;;;;;;14.50;13.10;;;6.90;99.90;;;;;;6279648;22;20191;-41
2023/10/18 02:06:06;;;;;;;13.30;12.10;;;6.80;99.90;;;;;;6280374;22;20196;-38
2023/10/18 02:08:34;;;;;;;13.77;12.43;;;6.80;99.90;;;;;;6278769;22;20473;-38
2023/10/18 02:11:05;;;;;;;14.03;12.63;;;6.80;99.90;;;;;;6279565;22;20393;-39
2023/10/18 02:13:31;;;;;;;13.80;12.33;;;6.80;99.90;;;;;;6279608;22;20405;-42
2023/10/18 02:15:57;;;;;;;14.90;13.40;;;6.80;99.90;;;;;;6279403;22;20383;-40
2023/10/18 02:18:23;;;;;;;14.40;12.97;;;6.80;99.90;;;;;;6277989;22;20476;-42
2023/10/18 02:20:52;;;;;;;14.97;13.50;;;6.80;99.90;;;;;;6278049;22;20644;-39
2023/10/18 02:23:19;;;;;;;15.37;13.87;;;6.80;99.90;;;;;;6279839;22;20438;-39
2023/10/18 02:25:45;;;;;;;14.60;13.13;;;6.80;99.90;;;;;;6278912;22;20774;-39
2023/10/18 02:28:27;;;;;;;14.37;12.87;;;6.80;99.90;;;;;;6282566;22;20517;-40
2023/10/18 02:31:06;;;;;;;14.90;13.40;;;6.80;99.90;;;;;;6287105;22;20665;-39
2023/10/18 02:33:40;;;;;;;14.17;12.70;;;6.80;99.90;;;;;;6310487;22;20695;-39
2023/10/18 02:36:20;;;;;;;13.60;12.30;;;6.80;99.90;;;;;;6284609;22;20433;-41
2023/10/18 02:38:46;;;;;;;13.70;12.40;;;6.80;99.90;;;;;;6310835;22;20429;-41
2023/10/18 02:41:15;;;;;;;15.13;13.17;;;6.80;99.90;;;;;;6308583;22;20766;-38
2023/10/18 02:43:48;;;;;;;14.90;13.47;;;6.80;99.90;;;;;;6308989;22;20179;-40
2023/10/18 02:46:16;;;;;;;15.97;14.47;;;6.80;99.90;;;;;;6308383;22;20468;-39
2023/10/18 02:48:45;;;;;;;15.37;13.80;;;6.80;1.00;;;;;;6309459;22;20378;-39
2023/10/18 02:51:13;;;;;;;15.30;13.70;;;6.80;1.00;;;;;;6310005;22;20836;-38
2023/10/18 02:53:43;;;;;;;15.03;13.53;;;6.80;1.00;;;;;;6309874;22;20416;-39
2023/10/18 02:56:10;;;;;;;15.27;13.67;;;6.80;1.00;;;;;;6309587;22;20544;-39
2023/10/18 02:58:38;;;;;;;15.87;14.37;;;6.80;1.00;;;;;;6309816;22;20387;-38
2023/10/18 03:01:06;;;;;;;16.13;14.53;;;6.80;1.00;;;;;;6309887;22;20385;-40
2023/10/18 03:03:34;;;;;;;15.90;14.30;;;6.80;1.00;;;;;;6309110;22;20468;-38
2023/10/18 03:06:06;;;;;;;17.33;15.63;;;6.70;1.00;;;;;;6309971;22;20688;-39
2023/10/18 03:08:37;;;;;;;14.87;13.40;;;6.70;1.00;;;;;;6308884;22;20417;-39
2023/10/18 03:11:05;;;;;;;15.17;13.60;;;6.70;1.00;;;;;;6310331;22;20390;-39
2023/10/18 03:13:31;;;;;;;15.30;13.83;;;6.70;1.00;;;;;;6310120;22;20823;-47
2023/10/18 03:18:41;;;;;;;15.07;13.57;;;6.80;61.70;;;;;;6285963;22;20398;-40
2023/10/18 03:21:07;;;;;;;15.27;13.87;;;6.70;11.50;;;;;;6309335;22;20450;-39
2023/10/18 03:23:43;;;;;;;16.30;14.70;;;6.70;1.00;;;;;;6310245;22;20382;-43
2023/10/18 03:26:11;;;;;;;15.90;14.30;;;6.70;1.00;;;;;;6310032;22;20692;-40
2023/10/18 03:28:40;;;;;;;15.70;14.20;;;6.70;1.00;;;;;;6309426;22;20417;-39
2023/10/18 03:31:23;;;;;;;15.07;13.67;;;6.70;7.10;;;;;;6309828;22;20389;-41
2023/10/18 03:33:52;;;;;;;14.63;13.20;;;6.70;1.00;;;;;;6310062;22;20381;-43
2023/10/18 03:36:20;;;;;;;14.27;12.87;;;6.70;1.00;;;;;;6281961;22;20355;-40
2023/10/18 03:38:54;;;;;;;15.70;14.10;;;6.70;1.00;;;;;;6282241;22;20390;-40
2023/10/18 03:41:22;;;;;;;16.53;14.93;;;6.70;1.00;;;;;;6308823;22;20434;-39
2023/10/18 03:43:49;;;;;;;14.80;13.30;;;6.70;1.00;;;;;;6308647;22;20473;-40
2023/10/18 03:46:29;;;;;;;15.47;13.83;;;6.60;1.00;;;;;;6307379;22;20478;-42
2023/10/18 03:48:55;;;;;;;14.83;12.87;;;6.60;1.00;;;;;;6306972;22;20467;-39
2023/10/18 03:51:24;;;;;;;15.43;13.83;;;6.60;1.00;;;;;;6306836;22;20362;-38
2023/10/18 03:53:53;;;;;;;16.60;14.97;;;6.60;1.00;;;;;;6309113;22;20363;-42
2023/10/18 03:56:21;;;;;;;16.97;15.37;;;6.60;1.00;;;;;;6309676;22;20393;-39
2023/10/18 03:59:00;;;;;;;14.53;13.03;;;6.60;4.40;;;;;;6309072;22;20382;-40
2023/10/18 04:01:28;;;;;;;15.73;14.20;;;6.60;14.80;;;;;;6306169;22;20517;-41
2023/10/18 04:03:56;;;;;;;17.70;15.77;;;6.60;45.50;;;;;;6306313;22;20421;-39
2023/10/18 04:06:23;;;;;;;16.90;15.23;;;6.60;99.90;;;;;;6308334;22;20686;-38
2023/10/18 04:09:16;;;;;;;19.20;16.10;;;6.60;99.90;;;;;;6310243;22;20449;-40
2023/10/18 04:11:42;;;;;;;18.43;16.53;;;6.60;1.00;;;;;;6310106;22;20382;-40
2023/10/18 04:14:10;;;;;;;19.00;17.07;;;6.60;1.00;;;;;;6305410;22;20571;-40
2023/10/18 04:16:36;;;;;;;17.50;15.80;;;6.60;1.00;;;;;;6305125;22;20789;-40
2023/10/18 04:19:02;;;;;;;18.07;15.20;;;6.60;1.00;;;;;;6278889;22;20772;-39
2023/10/18 04:21:27;;;;;;;18.00;16.20;;;6.60;1.00;;;;;;6306382;22;20402;-41
2023/10/18 04:23:59;;;;;;;17.07;15.27;;;6.60;1.00;;;;;;6305729;22;20224;-41
2023/10/18 04:26:25;;;;;;;19.07;15.37;;;6.60;1.00;;;;;;6306036;22;20567;-40
2023/10/18 04:29:01;;;;;;;16.43;14.80;;;6.60;1.00;;;;;;6306799;22;20437;-41
2023/10/18 04:31:27;;;;;;;17.47;15.67;;;6.60;1.00;;;;;;6307193;22;20385;-40
2023/10/18 04:33:54;;;;;;;18.13;16.43;;;6.60;1.00;;;;;;6279957;22;20504;-40
2023/10/18 04:36:23;;;;;;;17.53;15.70;;;6.60;1.00;;;;;;6307524;22;20350;-40
2023/10/18 04:38:51;;;;;;;18.47;16.57;;;6.60;1.00;;;;;;6306534;22;20398;-39
2023/10/18 04:41:23;;;;;;;17.73;16.03;;;6.60;1.00;;;;;;6305954;22;20386;-38
2023/10/18 04:43:56;;;;;;;20.63;16.83;;;6.60;1.00;;;;;;6304071;22;20781;-43
2023/10/18 04:46:26;;;;;;;18.27;16.30;;;6.60;1.00;;;;;;6301923;22;20802;-41
2023/10/18 04:51:28;;;;;;;18.23;16.33;;;6.60;1.00;;;;;;6306453;22;20366;-39
2023/10/18 04:53:58;;;;;;;18.30;16.40;;;6.60;1.00;;;;;;6277956;22;20561;-39
2023/10/18 04:56:34;;;;;;;19.70;17.70;;;6.60;54.50;;;;;;6305159;22;20511;-40
2023/10/18 04:59:06;;;;;;;19.70;17.80;;;6.60;99.90;;;;;;6300703;22;20458;-40
2023/10/18 05:01:36;;;;;;;19.20;17.30;;;6.60;99.90;;;;;;6303868;22;20417;-41
2023/10/18 05:04:18;;;;;;;23.33;17.97;;;6.60;99.90;;;;;;6304931;22;20412;-43
2023/10/18 05:06:45;;;;;;;23.67;18.07;;;6.60;99.90;;;;;;6301955;22;20378;-41
2023/10/18 05:09:12;;;;;;;22.20;18.60;;;6.60;1.00;;;;;;6275033;22;20432;-39
2023/10/18 05:11:47;;;;;;;22.17;18.77;;;6.60;1.00;;;;;;6303000;22;20393;-39
2023/10/18 05:14:19;;;;;;;21.13;19.03;;;6.60;1.00;;;;;;6303743;22;20789;-38
2023/10/18 05:16:46;;;;;;;19.07;17.07;;;6.60;1.00;;;;;;6303404;22;20394;-40
2023/10/18 05:19:13;;;;;;;18.60;16.70;;;6.60;99.90;;;;;;6299443;22;20487;-44
2023/10/18 05:21:39;;;;;;;19.33;17.33;;;6.60;99.90;;;;;;6298550;22;20615;-40
2023/10/18 05:24:05;;;;;;;18.63;16.80;;;6.60;99.90;;;;;;6304928;22;20355;-42
2023/10/18 05:26:34;;;;;;;21.40;19.10;;;6.50;99.90;;;;;;6302682;22;20472;-39
2023/10/18 05:29:03;;;;;;;18.30;16.60;;;6.50;99.90;;;;;;6301439;22;21055;-42
2023/10/18 05:31:49;;;;;;;18.80;16.90;;;6.50;99.90;;;;;;6273793;22;20709;-39
2023/10/18 05:36:54;;;;;;;20.83;17.93;;;6.50;99.90;;;;;;6303768;22;20582;-38
2023/10/18 05:42:13;;;;;;;18.63;16.77;;;6.50;33.10;;;;;;6316254;22;20758;-40
2023/10/18 05:44:39;;;;;;;19.43;17.47;;;6.60;22.80;;;;;;6302147;22;20542;-39
2023/10/18 05:47:06;;;;;;;21.10;18.97;;;6.60;13.70;;;;;;6302618;22;20382;-39
2023/10/18 05:49:40;;;;;;;19.50;17.57;;;6.60;15.00;;;;;;6306710;22;20147;-39
2023/10/18 05:54:31;;;;;;;18.37;16.47;;;6.60;25.50;;;;;;6307311;22;20374;-41
2023/10/18 05:56:57;;;;;;;20.80;16.10;;;6.60;37.10;;;;;;6303783;22;20132;-38
2023/10/18 05:59:33;;;;;;;15.83;13.57;;;6.60;45.20;;;;;;6305331;22;20155;-42
2023/10/18 06:02:10;;;;;;;19.27;11.00;;;6.70;1.00;;;;;;6302368;22;20179;-41
2023/10/18 06:04:42;;;;;;;25.33;10.63;;;7.60;1.00;;;;;;6305952;22;20472;-41
2023/10/18 06:07:12;;;;;;;14.80;11.00;;;8.80;1.00;;;;;;6306354;22;20388;-41
2023/10/18 06:09:48;;;;;;;19.50;10.10;;;9.80;1.00;;;;;;6279270;22;20374;-40
2023/10/18 06:12:21;;;;;;;16.57;9.37;;;10.50;1.00;;;;;;6305505;22;20432;-41
2023/10/18 06:14:47;;;;;;;11.47;8.43;;;11.10;1.00;;;;;;6308640;22;20389;-43
2023/10/18 06:17:12;;;;;;;11.20;7.80;;;11.80;99.90;;;;;;6281298;22;20474;-40
2023/10/18 06:19:39;;;;;;;12.47;8.03;;;12.30;73.10;;;;;;6307923;22;20159;-40
2023/10/18 06:24:49;;;;;;;16.27;14.60;;;12.80;1.00;;;;;;6306251;22;20439;-39
2023/10/18 06:27:17;;;;;;;16.47;14.47;;;12.40;99.90;;;;;;6306313;22;20782;-40
2023/10/18 06:29:45;;;;;;;16.17;14.60;;;11.90;1.00;;;;;;6307215;22;20274;-42
2023/10/18 06:32:14;;;;;;;17.77;15.97;;;11.40;99.90;;;;;;6278915;22;20674;-40
2023/10/18 06:34:46;;;;;;;17.70;16.10;;;11.00;99.90;;;;;;6307915;22;20398;-40
2023/10/18 06:37:31;;;;;;;18.23;16.53;;;10.60;99.90;;;;;;6307638;22;20418;-40
2023/10/18 06:40:00;;;;;;;17.30;15.60;;;10.30;99.90;;;;;;6308363;22;20410;-39
2023/10/18 06:42:28;;;;;;;18.07;16.20;;;10.00;99.90;;;;;;6279049;22;20453;-39
2023/10/18 06:44:55;;;;;;;18.10;16.40;;;9.80;99.90;;;;;;6281756;22;20390;-44
2023/10/18 06:47:30;;;;;;;17.70;16.10;;;9.60;99.90;;;;;;6304941;22;20411;-41
2023/10/18 06:49:59;;;;;;;18.87;17.07;;;9.50;99.90;;;;;;6304885;22;20797;-39
2023/10/18 06:52:30;;;;;;;17.57;15.87;;;9.40;99.90;;;;;;6304558;22;20791;-40
2023/10/18 06:54:56;;;;;;;17.80;16.10;;;9.30;99.90;;;;;;6305437;22;20647;-40
2023/10/18 06:57:27;;;;;;;19.13;17.17;;;9.30;99.90;;;;;;6304972;22;20393;-39
2023/10/18 06:59:54;;;;;;;18.87;17.07;;;9.30;99.90;;;;;;6306427;22;20193;-42
2023/10/18 07:02:26;;;;;;;20.27;18.20;;;9.30;99.90;;;;;;6307491;22;20448;-39
2023/10/18 07:04:56;;;;;;;19.13;17.20;;;9.30;99.90;;;;;;6307618;22;20688;-41
2023/10/18 07:07:25;;;;;;;20.07;17.97;;;9.30;99.90;;;;;;6253700;22;20492;-40
2023/10/18 07:09:54;;;;;;;16.50;14.87;;;9.30;99.90;;;;;;6309104;22;20382;-42
2023/10/18 07:12:26;;;;;;;18.87;16.90;;;9.40;99.90;;;;;;6308820;22;20549;-40
2023/10/18 07:15:00;;;;;;;19.40;17.47;;;9.50;99.90;;;;;;6281370;22;20798;-42
2023/10/18 07:17:26;;;;;;;22.40;17.10;;;9.50;40.80;;;;;;6277874;22;20398;-38
2023/10/18 07:19:58;;;;;;;20.43;18.33;;;9.70;99.90;;;;;;6280296;22;20414;-41
2023/10/18 07:25:21;;;;;;;20.10;18.10;;;9.90;83.30;;;;;;6283787;22;20385;-41
2023/10/18 07:27:47;;;;;;;21.73;19.40;;;10.00;49.10;;;;;;6306663;22;20377;-40
2023/10/18 07:30:16;;;;;;;20.07;18.17;;;10.10;1.00;;;;;;6307214;22;20512;-39
2023/10/18 07:32:48;;;;;;;36.93;23.73;;;10.30;1.00;;;;;;6306651;22;20152;-41
2023/10/18 07:35:26;;;;;;;22.30;18.43;;;10.50;1.00;;;;;;6306514;22;20453;-40
2023/10/18 07:37:54;;;;;;;20.77;18.57;;;10.80;99.90;;;;;;6305488;22;20389;-42
2023/10/18 07:40:21;;;;;;;28.30;19.83;;;11.10;99.90;;;;;;6278669;22;20833;-41
2023/10/18 07:42:51;;;;;;;23.47;19.30;;;11.50;1.00;;;;;;6305355;22;20472;-41
2023/10/18 07:45:21;;;;;;;22.50;19.57;;;11.80;1.00;;;;;;6306301;22;20346;-42
2023/10/18 07:47:53;;;;;;;20.90;18.77;;;12.10;1.00;;;;;;6306330;22;20397;-40
2023/10/18 07:53:04;;;;;;;19.37;17.43;;;12.50;99.90;;;;;;6306849;22;20393;-40
2023/10/18 07:55:36;;;;;;;20.70;18.70;;;12.80;99.90;;;;;;6307319;22;20382;-38
2023/10/18 07:58:06;;;;;;;18.23;16.23;;;13.10;1.00;;;;;;6305843;22;20393;-39
2023/10/18 08:00:32;;;;;;;16.90;15.20;;;13.40;1.00;;;;;;6306932;22;20661;-39
2023/10/18 08:02:59;;;;;;;15.33;13.90;;;13.80;1.00;;;;;;6307784;22;20417;-40
2023/10/18 08:05:31;;;;;;;15.50;14.00;;;14.10;1.00;;;;;;6305357;22;20148;-37
2023/10/18 08:08:08;;;;;;;14.03;12.73;;;14.30;1.00;;;;;;6305990;22;20392;-39
2023/10/18 08:10:35;;;;;;;15.57;13.70;;;14.60;99.90;;;;;;6306676;22;20385;-39
2023/10/18 08:13:07;;;;;;;13.80;12.50;;;14.90;99.90;;;;;;6306452;22;20386;-39
2023/10/18 08:15:36;;;;;;;14.40;13.20;;;15.10;99.90;;;;;;6307197;22;20362;-39
2023/10/18 08:18:18;;;;;;;16.03;11.57;;;15.30;99.90;;;;;;6281136;22;20374;-39
2023/10/18 08:25:51;;;;;;;13.73;8.20;;;16.20;1.00;;;;;;6305986;22;20390;-44
2023/10/18 08:28:17;;;;;;;17.33;9.37;;;16.60;1.00;;;;;;6278936;22;20450;-38
2023/10/18 08:33:08;;;;;;;8.47;7.50;;;17.20;99.90;;;;;;6305847;22;20390;-40
2023/10/18 08:35:36;;;;;;;11.70;7.90;;;17.60;99.90;;;;;;6306210;22;20278;-40
2023/10/18 08:38:02;;;;;;;10.33;8.17;;;18.00;99.50;;;;;;6307716;22;20156;-39
2023/10/18 08:40:36;;;;;;;11.60;8.83;;;18.30;24.60;;;;;;6308207;22;20447;-40
2023/10/18 08:43:15;;;;;;;8.30;7.50;;;18.50;1.00;;;;;;6307280;22;20444;-39
2023/10/18 08:45:47;;;;;;;8.70;7.87;;;18.70;1.00;;;;;;6308208;22;20359;-43
2023/10/18 08:48:16;;;;;;;11.33;10.00;;;19.00;1.00;;;;;;6308082;22;20375;-39
2023/10/18 08:50:42;;;;;;;11.40;10.27;;;19.20;1.00;;;;;;6309783;22;20378;-37
2023/10/18 08:53:09;;;;;;;10.73;9.80;;;19.20;1.00;;;;;;6309097;22;20673;-40
2023/10/18 08:55:45;;;;;;;11.10;10.20;;;19.30;1.00;;;;;;6282552;22;20452;-38
2023/10/18 08:58:17;;;;;;;10.00;9.07;;;19.30;1.00;;;;;;6283699;22;20846;-38
2023/10/18 09:03:14;;;;;;;10.33;9.43;;;19.60;1.00;;;;;;6307873;22;20413;-39
2023/10/18 09:05:40;;;;;;;11.27;10.13;;;19.90;1.00;;;;;;6258496;22;20390;-39
2023/10/18 09:08:08;;;;;;;9.50;8.70;;;20.20;1.00;;;;;;6308371;22;20785;-41
2023/10/18 09:10:43;;;;;;;9.13;8.20;;;20.40;1.00;;;;;;6309521;22;20481;-38
2023/10/18 09:18:16;;;;;;;8.77;7.70;;;21.30;1.00;;;;;;6309475;22;20369;-39
2023/10/18 09:20:41;;;;;;;8.93;8.20;;;21.70;1.00;;;;;;6283390;22;20930;-39
2023/10/18 09:23:14;;;;;;;8.40;7.33;;;22.10;1.00;;;;;;6307835;22;20425;-39
2023/10/18 09:28:25;;;;;;;7.73;7.10;;;22.60;1.00;;;;;;6305926;22;20424;-38
2023/10/18 09:31:00;;;;;;;6.83;6.20;;;22.70;1.00;;;;;;6309291;22;20476;-42
2023/10/18 09:33:33;;;;;;;5.77;5.23;;;22.70;1.00;;;;;;6307270;22;20128;-39
2023/10/18 09:36:02;;;;;;;5.90;5.40;;;22.80;1.00;;;;;;6308019;22;20366;-41
2023/10/18 09:38:41;;;;;;;8.10;6.90;;;23.00;1.00;;;;;;6308203;22;20394;-40
2023/10/18 09:41:07;;;;;;;6.37;5.87;;;23.20;1.00;;;;;;6307655;22;20717;-41
2023/10/18 09:43:33;;;;;;;5.57;5.07;;;23.80;1.00;;;;;;6306755;22;20708;-39
2023/10/18 09:45:59;;;;;;;6.30;5.70;;;24.10;1.00;;;;;;6308120;22;20427;-40
2023/10/18 09:48:32;;;;;;;5.90;5.30;;;24.10;1.00;;;;;;6306557;22;20365;-39
2023/10/18 09:51:06;;;;;;;6.63;6.13;;;24.00;1.00;;;;;;6306908;22;20380;-39
2023/10/18 09:53:35;;;;;;;7.17;6.57;;;23.80;1.00;;;;;;6308042;22;20393;-39
2023/10/18 09:56:02;;;;;;;7.60;6.80;;;23.70;1.00;;;;;;6307824;22;20390;-42
2023/10/18 09:58:29;;;;;;;6.60;6.10;;;23.50;1.00;;;;;;6278984;22;20382;-39
2023/10/18 10:00:58;;;;;;;7.00;6.30;;;23.20;1.00;;;;;;6305770;22;20382;-39
2023/10/18 10:03:25;;;;;;;7.60;6.30;;;23.10;1.00;;;;;;6255254;22;20426;-40
2023/10/18 10:05:51;;;;;;;7.03;6.33;;;22.80;1.00;;;;;;6280123;22;20762;-39
2023/10/18 10:08:22;;;;;;;6.63;6.07;;;22.70;1.00;;;;;;6253352;22;20452;-42
2023/10/18 10:10:49;;;;;;;6.67;5.90;;;22.70;1.00;;;;;;6306143;22;20412;-39
2023/10/18 10:13:18;;;;;;;6.67;6.07;;;22.80;1.00;;;;;;6308222;22;20637;-39
2023/10/18 10:15:54;;;;;;;6.17;5.57;;;23.40;1.00;;;;;;6306453;22;20390;-40
2023/10/18 10:18:22;;;;;;;6.07;5.47;;;24.40;1.00;;;;;;6281571;22;20428;-38
2023/10/18 10:20:48;;;;;;;7.03;6.33;;;25.60;1.00;;;;;;6281475;22;20378;-43
2023/10/18 10:23:15;;;;;;;7.57;5.77;;;26.60;1.00;;;;;;6278148;22;20467;-42
2023/10/18 10:25:57;;;;;;;8.50;5.60;;;27.60;1.00;;;;;;6278232;22;20249;-39
2023/10/18 10:29:20;;;;;;;6.70;6.00;;;28.50;1.00;;;;;;6272530;22;20885;-39
2023/10/18 10:31:55;;;;;;;5.90;5.40;;;29.30;1.00;;;;;;6273164;22;20708;-40
2023/10/18 10:34:36;;;;;;;5.50;5.00;;;30.30;1.00;;;;;;6273507;22;20796;-42
2023/10/18 10:37:12;;;;;;;5.67;5.27;;;31.00;1.00;;;;;;6273896;22;20379;-39
2023/10/18 10:39:49;;;;;;;6.23;5.70;;;31.20;1.00;;;;;;6248789;22;20476;-42
2023/10/18 10:42:46;;;;;;;5.40;5.00;;;30.80;1.00;;;;;;6272947;22;20419;-41
2023/10/18 10:45:30;;;;;;;6.40;5.80;;;30.20;1.00;;;;;;6245748;22;20451;-42
2023/10/18 10:51:20;;;;;;;7.00;5.03;;;30.60;1.00;;;;;;6223859;22;20391;-40
2023/10/18 10:53:58;;;;;;;6.50;4.20;;;31.20;1.00;;;;;;6272152;22;20373;-40
2023/10/18 10:56:33;;;;;;;5.80;5.30;;;31.80;1.00;;;;;;6270850;22;20624;-43
2023/10/18 10:59:03;;;;;;;5.37;4.97;;;32.00;1.00;;;;;;6271667;22;20464;-40
2023/10/18 11:01:39;;;;;;;5.90;5.23;;;31.80;1.00;;;;;;6272488;22;20823;-39
2023/10/18 11:04:24;;;;;;;5.53;5.00;;;30.90;1.00;;;;;;6274435;22;20840;-41
2023/10/18 11:06:56;;;;;;;5.73;5.13;;;29.90;1.00;;;;;;6250411;22;20394;-41
2023/10/18 11:09:32;;;;;;;6.57;5.93;;;29.10;1.00;;;;;;6276509;22;20348;-41
2023/10/18 11:12:04;;;;;;;5.30;4.90;;;28.20;1.00;;;;;;6274510;22;20520;-39
2023/10/18 11:14:31;;;;;;;5.53;5.00;;;27.40;1.00;;;;;;6274686;22;20386;-41
2023/10/18 11:19:41;;;;;;;5.20;4.70;;;26.30;1.00;;;;;;6252089;22;20870;-41
2023/10/18 11:22:08;;;;;;;5.70;5.20;;;25.80;1.00;;;;;;6274542;22;20448;-40
2023/10/18 11:24:39;;;;;;;5.13;4.57;;;25.30;1.00;;;;;;6247216;22;20360;-43
2023/10/18 11:27:08;;;;;;;6.50;4.93;;;24.90;1.00;;;;;;6222110;22;20414;-39
2023/10/18 11:29:38;;;;;;;6.07;5.17;;;24.50;1.00;;;;;;6261698;22;20435;-38
2023/10/18 11:32:06;;;;;;;5.10;4.67;;;24.20;1.00;;;;;;6269066;22;20489;-41
2023/10/18 11:34:33;;;;;;;4.70;4.07;;;23.90;1.00;;;;;;6268975;22;20394;-39
2023/10/18 11:37:02;;;;;;;5.37;4.30;;;23.70;1.00;;;;;;6272894;22;20387;-40
2023/10/18 11:39:34;;;;;;;5.20;4.63;;;23.50;1.00;;;;;;6273519;22;20355;-41
2023/10/18 11:42:00;;;;;;;5.77;5.17;;;23.50;1.00;;;;;;6274381;22;20407;-39
2023/10/18 11:44:27;;;;;;;4.87;4.47;;;23.50;1.00;;;;;;6272397;22;20421;-42
2023/10/18 11:46:58;;;;;;;5.40;4.90;;;23.50;1.00;;;;;;6273026;22;20403;-39
2023/10/18 11:49:42;;;;;;;4.47;4.07;;;23.40;1.00;;;;;;6273907;22;20441;-39
2023/10/18 11:52:21;;;;;;;4.90;4.40;;;23.30;1.00;;;;;;6274660;22;20390;-41
2023/10/18 11:54:52;;;;;;;4.13;3.73;;;23.10;1.00;;;;;;6275378;22;20434;-39
2023/10/18 11:57:26;;;;;;;4.50;4.10;;;23.00;1.00;;;;;;6275085;22;20417;-44
2023/10/18 11:59:56;;;;;;;4.80;4.40;;;22.90;1.00;;;;;;6274304;22;20363;-41
2023/10/18 12:02:28;;;;;;;6.80;4.67;;;22.80;1.00;;;;;;6275858;22;20511;-43
2023/10/18 12:04:57;;;;;;;5.53;4.47;;;22.60;1.00;;;;;;6273852;22;20422;-39
2023/10/18 12:07:24;;;;;;;5.20;4.70;;;22.50;1.00;;;;;;6275363;22;20435;-41
2023/10/18 12:09:53;;;;;;;6.53;4.57;;;22.30;1.00;;;;;;6273024;22;20383;-39
2023/10/18 12:12:19;;;;;;;5.70;5.13;;;22.20;1.00;;;;;;6247654;22;20763;-40
2023/10/18 12:14:45;;;;;;;5.80;5.20;;;22.00;1.00;;;;;;6273265;22;20806;-41
2023/10/18 12:17:13;;;;;;;6.37;5.77;;;21.80;1.00;;;;;;6274711;22;20481;-40
2023/10/18 12:19:41;;;;;;;5.37;4.87;;;21.60;1.00;;;;;;6274390;22;20426;-39
2023/10/18 12:22:09;;;;;;;5.73;5.23;;;21.40;1.00;;;;;;6275436;22;20701;-39
2023/10/18 12:24:35;;;;;;;8.17;7.33;;;21.30;1.00;;;;;;6275772;22;20356;-41
2023/10/18 12:27:33;;;;;;;6.70;5.90;;;21.20;1.00;;;;;;6275435;22;20436;-41
2023/10/18 12:29:52;;;;;;;6.90;6.30;;;20.90;1.00;;;;;;6296987;22;20508;-41
2023/10/18 12:32:27;;;;;;;6.00;5.50;;;20.70;1.00;;;;;;6302271;22;20797;-40
2023/10/18 12:34:56;;;;;;;5.67;5.17;;;20.40;99.90;;;;;;6303941;22;20485;-41
2023/10/18 12:37:24;;;;;;;6.47;5.87;;;20.10;99.90;;;;;;6301956;22;20402;-41
2023/10/18 12:39:49;;;;;;;8.10;5.90;;;20.00;99.90;;;;;;6302318;22;20382;-40
2023/10/18 12:42:19;;;;;;;6.63;5.67;;;19.80;99.90;;;;;;6302731;22;20550;-40
2023/10/18 12:44:48;;;;;;;7.43;5.77;;;19.60;99.90;;;;;;6303736;22;20167;-40
2023/10/18 12:47:19;;;;;;;6.10;5.57;;;19.50;99.90;;;;;;6306573;22;20464;-41
2023/10/18 12:49:51;;;;;;;7.13;5.67;;;19.50;99.90;;;;;;6305008;22;20435;-39
2023/10/18 12:55:31;;;;;;;6.80;6.20;;;19.50;1.00;;;;;;6234367;22;20386;-39
2023/10/18 12:57:58;;;;;;;6.10;5.50;;;19.50;1.00;;;;;;6303957;22;20405;-40
2023/10/18 13:00:24;;;;;;;7.17;6.47;;;19.30;99.90;;;;;;6307080;22;20351;-39
2023/10/18 13:03:21;;;;;;;6.57;5.73;;;19.30;1.00;;;;;;6278523;22;20422;-41
2023/10/18 13:05:46;;;;;;;7.00;6.37;;;19.20;99.90;;;;;;6306281;22;20389;-38
2023/10/18 13:08:25;;;;;;;7.37;6.67;;;19.10;1.00;;;;;;6306610;22;20649;-39
2023/10/18 13:13:30;;;;;;;7.70;7.00;;;18.90;1.00;;;;;;6306518;22;20426;-41
2023/10/18 13:15:58;;;;;;;10.93;8.00;;;18.70;1.00;;;;;;6306669;22;20397;-42
2023/10/18 13:18:28;;;;;;;7.13;6.03;;;18.60;1.00;;;;;;6305363;22;20363;-39
2023/10/18 13:20:58;;;;;;;8.13;7.20;;;18.50;1.00;;;;;;6306231;22;20416;-40
2023/10/18 13:23:27;;;;;;;7.57;6.40;;;18.30;1.00;;;;;;6304947;22;20418;-40
2023/10/18 13:25:54;;;;;;;7.30;6.50;;;18.20;1.00;;;;;;6304447;22;20382;-42
2023/10/18 13:29:05;;;;;;;9.63;8.13;;;18.00;1.00;;;;;;6304187;22;20706;-37
2023/10/18 13:31:09;;;;;;;7.70;7.00;;;17.90;1.00;;;;;;6287726;22;20404;-39
2023/10/18 13:33:35;;;;;;;8.10;7.37;;;17.80;1.00;;;;;;6302336;22;20355;-38
2023/10/18 13:36:08;;;;;;;7.83;6.80;;;17.80;1.00;;;;;;6302300;22;20374;-38
2023/10/18 13:38:34;;;;;;;7.27;6.67;;;17.70;1.00;;;;;;6304893;22;20175;-38
2023/10/18 13:41:00;;;;;;;7.83;7.13;;;17.70;1.00;;;;;;6304853;22;20435;-41
2023/10/18 13:43:26;;;;;;;7.50;6.80;;;17.70;1.00;;;;;;6305184;22;20180;-39
2023/10/18 13:46:00;;;;;;;8.03;7.00;;;17.70;1.00;;;;;;6308459;22;20389;-39
2023/10/18 13:48:26;;;;;;;6.30;5.70;;;17.80;1.00;;;;;;6306825;22;20253;-40
2023/10/18 13:50:58;;;;;;;6.13;5.17;;;17.80;1.00;;;;;;6307930;22;20658;-40
2023/10/18 13:53:25;;;;;;;7.73;7.13;;;17.80;1.00;;;;;;6309839;22;20425;-39